sensor_id;sensor_type;location;lat;lon;timestamp;pressure;altitude;pressure_sealevel;temperature;humidity
6389;BME280;3227;42.654;23.360;2022-07-23T00:01:40;94722.94;;;24.43;47.86
6389;BME280;3227;42.654;23.360;2022-07-23T00:04:12;94720.53;;;24.38;46.99
6389;BME280;3227;42.654;23.360;2022-07-23T00:06:39;94722.94;;;24.43;47.04
6389;BME280;3227;42.654;23.360;2022-07-23T00:09:05;94726.34;;;24.45;46.87
6389;BME280;3227;42.654;23.360;2022-07-23T00:11:32;94728.16;;;24.43;47.41
6389;BME280;3227;42.654;23.360;2022-07-23T00:13:59;94721.47;;;24.37;47.39
6389;BME280;3227;42.654;23.360;2022-07-23T00:16:27;94728.94;;;24.27;48.01
6389;BME280;3227;42.654;23.360;2022-07-23T00:18:54;94729.81;;;24.09;48.91
6389;BME280;3227;42.654;23.360;2022-07-23T00:21:21;94729.72;;;23.94;48.66
6389;BME280;3227;42.654;23.360;2022-07-23T00:23:48;94730.25;;;23.83;48.32
6389;BME280;3227;42.654;23.360;2022-07-23T00:26:14;94732.69;;;23.69;48.76
6389;BME280;3227;42.654;23.360;2022-07-23T00:28:41;94734.38;;;23.70;49.84
6389;BME280;3227;42.654;23.360;2022-07-23T00:31:08;94737.97;;;23.67;47.59
6389;BME280;3227;42.654;23.360;2022-07-23T00:33:36;94737.97;;;23.67;47.87
6389;BME280;3227;42.654;23.360;2022-07-23T00:36:03;94742.22;;;23.70;49.32
6389;BME280;3227;42.654;23.360;2022-07-23T00:38:30;94738.97;;;23.65;47.98
6389;BME280;3227;42.654;23.360;2022-07-23T00:40:57;94744.06;;;23.68;48.47
6389;BME280;3227;42.654;23.360;2022-07-23T00:43:24;94693.94;;;23.39;48.33
6389;BME280;3227;42.654;23.360;2022-07-23T00:45:51;94743.00;;;23.72;48.16
6389;BME280;3227;42.654;23.360;2022-07-23T00:48:18;94741.38;;;23.69;48.10
6389;BME280;3227;42.654;23.360;2022-07-23T00:50:46;94739.69;;;23.68;48.23
6389;BME280;3227;42.654;23.360;2022-07-23T00:53:13;94737.13;;;23.67;48.55
6389;BME280;3227;42.654;23.360;2022-07-23T00:55:40;94737.13;;;23.67;48.52
6389;BME280;3227;42.654;23.360;2022-07-23T00:58:09;94737.34;;;23.62;48.35
6389;BME280;3227;42.654;23.360;2022-07-23T01:00:36;94734.03;;;23.59;48.74
6389;BME280;3227;42.654;23.360;2022-07-23T01:03:02;94736.78;;;23.56;48.74
6389;BME280;3227;42.654;23.360;2022-07-23T01:05:29;94733.34;;;23.55;49.12
6389;BME280;3227;42.654;23.360;2022-07-23T01:07:57;94735.97;;;23.55;49.38
6389;BME280;3227;42.654;23.360;2022-07-23T01:10:24;94736.88;;;23.54;49.49
6389;BME280;3227;42.654;23.360;2022-07-23T01:12:57;94732.50;;;23.55;49.26
6389;BME280;3227;42.654;23.360;2022-07-23T01:15:24;94729.09;;;23.52;49.57
6389;BME280;3227;42.654;23.360;2022-07-23T01:17:51;94723.69;;;23.56;49.55
6389;BME280;3227;42.654;23.360;2022-07-23T01:20:18;94727.25;;;23.55;49.24
6389;BME280;3227;42.654;23.360;2022-07-23T01:22:47;94727.41;;;23.51;49.42
6389;BME280;3227;42.654;23.360;2022-07-23T01:25:14;94717.91;;;23.49;49.16
6389;BME280;3227;42.654;23.360;2022-07-23T01:27:41;94718.03;;;23.46;49.50
6389;BME280;3227;42.654;23.360;2022-07-23T01:30:09;94727.66;;;23.45;49.82
6389;BME280;3227;42.654;23.360;2022-07-23T01:32:35;94719.03;;;23.43;49.67
6389;BME280;3227;42.654;23.360;2022-07-23T01:35:03;94725.41;;;23.38;49.88
6389;BME280;3227;42.654;23.360;2022-07-23T01:37:30;94714.22;;;23.34;49.78
6389;BME280;3227;42.654;23.360;2022-07-23T01:39:58;94723.16;;;23.30;50.69
6389;BME280;3227;42.654;23.360;2022-07-23T01:42:25;94725.97;;;23.26;51.11
6389;BME280;3227;42.654;23.360;2022-07-23T01:44:52;94718.59;;;23.15;51.48
6389;BME280;3227;42.654;23.360;2022-07-23T01:47:18;94720.72;;;23.07;51.63
6389;BME280;3227;42.654;23.360;2022-07-23T01:49:45;94719.47;;;22.97;51.84
6389;BME280;3227;42.654;23.360;2022-07-23T01:52:12;94719.59;;;22.94;52.00
6389;BME280;3227;42.654;23.360;2022-07-23T01:54:39;94714.63;;;22.88;51.77
6389;BME280;3227;42.654;23.360;2022-07-23T01:57:08;94718.16;;;22.87;51.69
6389;BME280;3227;42.654;23.360;2022-07-23T01:59:35;94726.19;;;22.82;52.19
6389;BME280;3227;42.654;23.360;2022-07-23T02:02:02;94712.38;;;22.80;52.35
6389;BME280;3227;42.654;23.360;2022-07-23T02:04:31;94720.00;;;22.85;51.71
6389;BME280;3227;42.654;23.360;2022-07-23T02:07:02;94720.84;;;22.85;52.49
6389;BME280;3227;42.654;23.360;2022-07-23T02:09:29;94722.41;;;22.89;52.60
6389;BME280;3227;42.654;23.360;2022-07-23T02:11:55;94723.09;;;22.93;52.28
6389;BME280;3227;42.654;23.360;2022-07-23T02:14:24;94721.41;;;22.92;52.01
6389;BME280;3227;42.654;23.360;2022-07-23T02:16:51;94729.31;;;22.90;51.94
6389;BME280;3227;42.654;23.360;2022-07-23T02:19:17;94723.38;;;22.87;52.04
6389;BME280;3227;42.654;23.360;2022-07-23T02:21:44;94733.13;;;22.83;52.76
6389;BME280;3227;42.654;23.360;2022-07-23T02:24:11;94722.03;;;22.78;51.94
6389;BME280;3227;42.654;23.360;2022-07-23T02:26:38;94728.41;;;22.71;52.36
6389;BME280;3227;42.654;23.360;2022-07-23T02:29:05;94692.00;;;22.48;51.95
6389;BME280;3227;42.654;23.360;2022-07-23T02:31:33;94724.78;;;22.73;51.02
6389;BME280;3227;42.654;23.360;2022-07-23T02:34:01;94720.63;;;22.69;51.02
6389;BME280;3227;42.654;23.360;2022-07-23T02:36:29;94725.88;;;22.69;51.61
6389;BME280;3227;42.654;23.360;2022-07-23T02:38:56;94726.84;;;22.67;51.06
6389;BME280;3227;42.654;23.360;2022-07-23T02:41:23;94732.97;;;22.66;51.27
6389;BME280;3227;42.654;23.360;2022-07-23T02:43:50;94720.25;;;22.58;51.12
6389;BME280;3227;42.654;23.360;2022-07-23T02:46:17;94738.28;;;22.64;50.99
6389;BME280;3227;42.654;23.360;2022-07-23T02:48:45;94740.81;;;22.66;50.99
6389;BME280;3227;42.654;23.360;2022-07-23T02:51:12;94739.25;;;22.62;50.86
6389;BME280;3227;42.654;23.360;2022-07-23T02:53:38;94739.38;;;22.59;50.91
6389;BME280;3227;42.654;23.360;2022-07-23T02:56:05;94737.50;;;22.62;51.13
6389;BME280;3227;42.654;23.360;2022-07-23T02:58:32;94736.59;;;22.63;50.98
6389;BME280;3227;42.654;23.360;2022-07-23T03:00:59;94744.47;;;22.62;51.00
6389;BME280;3227;42.654;23.360;2022-07-23T03:03:26;94750.84;;;22.56;50.89
6389;BME280;3227;42.654;23.360;2022-07-23T03:05:54;94744.31;;;22.46;51.35
6389;BME280;3227;42.654;23.360;2022-07-23T03:08:21;94748.47;;;22.50;51.75
6389;BME280;3227;42.654;23.360;2022-07-23T03:10:48;94748.47;;;22.50;51.57
6389;BME280;3227;42.654;23.360;2022-07-23T03:13:14;94744.94;;;22.51;52.49
6389;BME280;3227;42.654;23.360;2022-07-23T03:15:41;94745.72;;;22.53;53.10
6389;BME280;3227;42.654;23.360;2022-07-23T03:18:08;94758.56;;;22.58;52.66
6389;BME280;3227;42.654;23.360;2022-07-23T03:20:34;94752.09;;;22.66;52.88
6389;BME280;3227;42.654;23.360;2022-07-23T03:23:03;94758.66;;;22.76;52.67
6389;BME280;3227;42.654;23.360;2022-07-23T03:25:29;94708.25;;;22.54;51.82
6389;BME280;3227;42.654;23.360;2022-07-23T03:27:56;94766.50;;;22.97;51.35
6389;BME280;3227;42.654;23.360;2022-07-23T03:30:23;94757.31;;;23.07;50.56
6389;BME280;3227;42.654;23.360;2022-07-23T03:32:53;94765.53;;;23.37;49.93
6389;BME280;3227;42.654;23.360;2022-07-23T03:35:19;94765.53;;;23.74;48.73
6389;BME280;3227;42.654;23.360;2022-07-23T03:37:46;94772.94;;;24.21;48.29
6389;BME280;3227;42.654;23.360;2022-07-23T03:40:15;94770.47;;;24.70;47.07
6389;BME280;3227;42.654;23.360;2022-07-23T03:42:41;94739.56;;;24.93;45.33
6389;BME280;3227;42.654;23.360;2022-07-23T03:45:09;94772.34;;;25.66;44.42
6389;BME280;3227;42.654;23.360;2022-07-23T03:47:36;94768.31;;;26.22;42.69
6389;BME280;3227;42.654;23.360;2022-07-23T03:50:05;94770.19;;;26.66;42.00
6389;BME280;3227;42.654;23.360;2022-07-23T03:52:32;94772.00;;;27.23;40.59
6389;BME280;3227;42.654;23.360;2022-07-23T03:54:58;94776.56;;;27.77;38.74
6389;BME280;3227;42.654;23.360;2022-07-23T03:57:26;94774.72;;;28.20;38.67
6389;BME280;3227;42.654;23.360;2022-07-23T03:59:53;94766.72;;;28.61;37.16
6389;BME280;3227;42.654;23.360;2022-07-23T04:02:20;94783.38;;;29.01;36.70
6389;BME280;3227;42.654;23.360;2022-07-23T04:04:47;94757.53;;;29.31;35.34
6389;BME280;3227;42.654;23.360;2022-07-23T04:07:14;94771.50;;;29.82;34.74
6389;BME280;3227;42.654;23.360;2022-07-23T04:09:43;94769.91;;;30.29;33.54
6389;BME280;3227;42.654;23.360;2022-07-23T04:12:09;94775.75;;;30.80;32.74
6389;BME280;3227;42.654;23.360;2022-07-23T04:14:43;94774.94;;;31.26;31.88
6389;BME280;3227;42.654;23.360;2022-07-23T04:17:09;94767.16;;;31.58;31.41
6389;BME280;3227;42.654;23.360;2022-07-23T04:19:36;94771.16;;;31.86;30.91
6389;BME280;3227;42.654;23.360;2022-07-23T04:22:06;94772.41;;;32.13;30.34
6389;BME280;3227;42.654;23.360;2022-07-23T04:24:33;94779.00;;;32.41;29.82
6389;BME280;3227;42.654;23.360;2022-07-23T04:27:00;94771.06;;;32.30;30.28
6389;BME280;3227;42.654;23.360;2022-07-23T04:29:27;94784.13;;;32.54;29.58
6389;BME280;3227;42.654;23.360;2022-07-23T04:31:55;94779.50;;;32.67;29.03
6389;BME280;3227;42.654;23.360;2022-07-23T04:34:22;94790.84;;;33.01;29.34
6389;BME280;3227;42.654;23.360;2022-07-23T04:36:49;94789.97;;;33.33;29.08
6389;BME280;3227;42.654;23.360;2022-07-23T04:39:16;94791.06;;;33.60;29.22
6389;BME280;3227;42.654;23.360;2022-07-23T04:41:42;94787.47;;;33.92;28.92
6389;BME280;3227;42.654;23.360;2022-07-23T04:44:09;94776.50;;;34.16;27.49
6389;BME280;3227;42.654;23.360;2022-07-23T04:46:36;94792.81;;;34.51;27.44
6389;BME280;3227;42.654;23.360;2022-07-23T04:49:04;94800.44;;;34.85;26.99
6389;BME280;3227;42.654;23.360;2022-07-23T04:51:31;94793.56;;;35.11;26.46
6389;BME280;3227;42.654;23.360;2022-07-23T04:53:58;94804.50;;;35.27;26.20
6389;BME280;3227;42.654;23.360;2022-07-23T04:56:25;94803.66;;;35.27;26.31
6389;BME280;3227;42.654;23.360;2022-07-23T04:58:51;94813.47;;;35.26;26.39
6389;BME280;3227;42.654;23.360;2022-07-23T05:01:18;94808.84;;;35.28;26.76
6389;BME280;3227;42.654;23.360;2022-07-23T05:03:45;94807.13;;;35.18;27.04
6389;BME280;3227;42.654;23.360;2022-07-23T05:06:15;94803.50;;;35.19;26.84
6389;BME280;3227;42.654;23.360;2022-07-23T05:08:41;94803.13;;;35.23;26.65
6389;BME280;3227;42.654;23.360;2022-07-23T05:11:08;94806.88;;;35.21;26.94
6389;BME280;3227;42.654;23.360;2022-07-23T05:13:35;94809.38;;;35.22;26.84
6389;BME280;3227;42.654;23.360;2022-07-23T05:16:02;94806.72;;;35.22;27.00
6389;BME280;3227;42.654;23.360;2022-07-23T05:18:28;94810.09;;;35.34;27.10
6389;BME280;3227;42.654;23.360;2022-07-23T05:20:55;94810.22;;;35.42;26.98
6389;BME280;3227;42.654;23.360;2022-07-23T05:23:23;94812.72;;;35.53;27.10
6389;BME280;3227;42.654;23.360;2022-07-23T05:25:50;94811.38;;;35.39;27.00
6389;BME280;3227;42.654;23.360;2022-07-23T05:28:17;94817.69;;;34.90;27.82
6389;BME280;3227;42.654;23.360;2022-07-23T05:30:43;94814.16;;;34.80;28.38
6389;BME280;3227;42.654;23.360;2022-07-23T05:33:10;94809.25;;;34.85;28.35
6389;BME280;3227;42.654;23.360;2022-07-23T05:35:37;94812.91;;;34.94;27.73
6389;BME280;3227;42.654;23.360;2022-07-23T05:38:04;94818.09;;;34.95;28.22
6389;BME280;3227;42.654;23.360;2022-07-23T05:40:32;94816.97;;;34.88;28.01
6389;BME280;3227;42.654;23.360;2022-07-23T05:42:59;94815.44;;;34.95;27.76
6389;BME280;3227;42.654;23.360;2022-07-23T05:45:26;94817.69;;;35.00;28.04
6389;BME280;3227;42.654;23.360;2022-07-23T05:47:52;94809.91;;;34.68;28.15
6389;BME280;3227;42.654;23.360;2022-07-23T05:50:19;94809.63;;;34.52;28.11
6389;BME280;3227;42.654;23.360;2022-07-23T05:52:46;94812.94;;;34.25;28.94
6389;BME280;3227;42.654;23.360;2022-07-23T05:55:13;94789.97;;;33.84;29.31
6389;BME280;3227;42.654;23.360;2022-07-23T05:57:41;94807.53;;;34.06;29.31
6389;BME280;3227;42.654;23.360;2022-07-23T06:00:09;94780.97;;;33.75;29.71
6389;BME280;3227;42.654;23.360;2022-07-23T06:02:37;94817.28;;;33.95;29.65
6389;BME280;3227;42.654;23.360;2022-07-23T06:05:05;94803.94;;;33.86;30.26
6389;BME280;3227;42.654;23.360;2022-07-23T06:07:33;94809.19;;;33.97;28.73
6389;BME280;3227;42.654;23.360;2022-07-23T06:09:59;94809.13;;;33.57;28.80
6389;BME280;3227;42.654;23.360;2022-07-23T06:12:26;94812.53;;;33.06;29.09
6389;BME280;3227;42.654;23.360;2022-07-23T06:14:54;94801.72;;;32.66;29.94
6389;BME280;3227;42.654;23.360;2022-07-23T06:17:21;94801.81;;;32.65;29.83
6389;BME280;3227;42.654;23.360;2022-07-23T06:19:48;94804.47;;;32.65;29.68
6389;BME280;3227;42.654;23.360;2022-07-23T06:22:15;94806.41;;;32.63;30.08
6389;BME280;3227;42.654;23.360;2022-07-23T06:24:41;94803.38;;;32.13;31.02
6389;BME280;3227;42.654;23.360;2022-07-23T06:27:08;94809.19;;;31.96;31.23
6389;BME280;3227;42.654;23.360;2022-07-23T06:29:35;94798.06;;;32.13;31.61
6389;BME280;3227;42.654;23.360;2022-07-23T06:32:04;94801.47;;;32.26;31.01
6389;BME280;3227;42.654;23.360;2022-07-23T06:34:30;94795.22;;;31.94;30.04
6389;BME280;3227;42.654;23.360;2022-07-23T06:36:57;94791.38;;;31.75;31.13
6389;BME280;3227;42.654;23.360;2022-07-23T06:39:24;94795.81;;;31.53;31.59
6389;BME280;3227;42.654;23.360;2022-07-23T06:41:51;94797.72;;;31.28;31.91
6389;BME280;3227;42.654;23.360;2022-07-23T06:44:18;94800.56;;;31.14;32.17
6389;BME280;3227;42.654;23.360;2022-07-23T06:46:45;94792.69;;;31.01;31.85
6389;BME280;3227;42.654;23.360;2022-07-23T06:49:13;94795.56;;;30.98;32.23
6389;BME280;3227;42.654;23.360;2022-07-23T06:51:40;94794.03;;;31.07;31.64
6389;BME280;3227;42.654;23.360;2022-07-23T06:54:07;94797.53;;;31.08;31.61
6389;BME280;3227;42.654;23.360;2022-07-23T06:56:33;94795.16;;;31.16;32.49
6389;BME280;3227;42.654;23.360;2022-07-23T06:59:00;94788.34;;;31.58;32.55
6389;BME280;3227;42.654;23.360;2022-07-23T07:01:27;94795.47;;;32.02;31.66
6389;BME280;3227;42.654;23.360;2022-07-23T07:03:54;94754.25;;;32.20;31.70
6389;BME280;3227;42.654;23.360;2022-07-23T07:06:22;94786.09;;;32.52;30.23
6389;BME280;3227;42.654;23.360;2022-07-23T07:08:49;94792.66;;;32.26;31.17
6389;BME280;3227;42.654;23.360;2022-07-23T07:11:15;94787.25;;;32.05;32.08
6389;BME280;3227;42.654;23.360;2022-07-23T07:13:42;94784.13;;;32.00;32.14
6389;BME280;3227;42.654;23.360;2022-07-23T07:16:09;94746.34;;;31.87;32.10
6389;BME280;3227;42.654;23.360;2022-07-23T07:18:36;94786.75;;;32.33;31.18
6389;BME280;3227;42.654;23.360;2022-07-23T07:21:02;94781.56;;;32.64;30.78
6389;BME280;3227;42.654;23.360;2022-07-23T07:23:31;94783.25;;;32.65;30.79
6389;BME280;3227;42.654;23.360;2022-07-23T07:26:12;94786.03;;;32.63;30.99
6389;BME280;3227;42.654;23.360;2022-07-23T07:28:39;94777.16;;;32.53;30.70
6389;BME280;3227;42.654;23.360;2022-07-23T07:31:06;94777.00;;;32.55;30.54
6389;BME280;3227;42.654;23.360;2022-07-23T07:33:33;94770.34;;;32.71;31.10
6389;BME280;3227;42.654;23.360;2022-07-23T07:36:00;94768.06;;;32.67;30.77
6389;BME280;3227;42.654;23.360;2022-07-23T07:38:26;94768.41;;;32.41;31.07
6389;BME280;3227;42.654;23.360;2022-07-23T07:40:55;94764.59;;;32.23;30.42
6389;BME280;3227;42.654;23.360;2022-07-23T07:43:21;94753.16;;;32.00;30.35
6389;BME280;3227;42.654;23.360;2022-07-23T07:45:48;94765.97;;;31.95;30.08
6389;BME280;3227;42.654;23.360;2022-07-23T07:48:15;94764.59;;;32.01;31.52
6389;BME280;3227;42.654;23.360;2022-07-23T07:50:42;94770.72;;;32.24;30.93
6389;BME280;3227;42.654;23.360;2022-07-23T07:53:08;94766.25;;;32.13;30.17
6389;BME280;3227;42.654;23.360;2022-07-23T07:55:35;94729.47;;;31.77;30.54
6389;BME280;3227;42.654;23.360;2022-07-23T07:58:03;94766.66;;;32.08;31.42
6389;BME280;3227;42.654;23.360;2022-07-23T08:00:30;94761.09;;;32.11;31.35
6389;BME280;3227;42.654;23.360;2022-07-23T08:02:58;94759.59;;;31.87;31.09
6389;BME280;3227;42.654;23.360;2022-07-23T08:05:27;94754.53;;;31.61;31.60
6389;BME280;3227;42.654;23.360;2022-07-23T08:07:54;94751.75;;;31.52;32.17
6389;BME280;3227;42.654;23.360;2022-07-23T08:10:21;94753.88;;;31.47;33.06
6389;BME280;3227;42.654;23.360;2022-07-23T08:12:50;94733.78;;;31.55;33.01
6389;BME280;3227;42.654;23.360;2022-07-23T08:15:20;94722.25;;;31.79;32.39
6389;BME280;3227;42.654;23.360;2022-07-23T08:17:48;94746.03;;;32.12;31.98
6389;BME280;3227;42.654;23.360;2022-07-23T08:20:16;94751.09;;;32.26;32.29
6389;BME280;3227;42.654;23.360;2022-07-23T08:22:46;94753.00;;;32.35;31.14
6389;BME280;3227;42.654;23.360;2022-07-23T08:25:13;94730.50;;;32.19;31.46
6389;BME280;3227;42.654;23.360;2022-07-23T08:27:40;94743.13;;;32.26;31.54
6389;BME280;3227;42.654;23.360;2022-07-23T08:30:08;94747.28;;;32.40;30.90
6389;BME280;3227;42.654;23.360;2022-07-23T08:32:53;94747.69;;;32.35;31.03
6389;BME280;3227;42.654;23.360;2022-07-23T08:35:25;94746.72;;;32.14;31.72
6389;BME280;3227;42.654;23.360;2022-07-23T08:37:52;94741.69;;;32.22;31.90
6389;BME280;3227;42.654;23.360;2022-07-23T08:40:19;94750.19;;;32.37;31.84
6389;BME280;3227;42.654;23.360;2022-07-23T08:42:47;94747.84;;;32.55;31.56
6389;BME280;3227;42.654;23.360;2022-07-23T08:45:17;94747.19;;;32.62;32.25
6389;BME280;3227;42.654;23.360;2022-07-23T08:47:45;94739.66;;;32.46;31.72
6389;BME280;3227;42.654;23.360;2022-07-23T08:50:15;94742.47;;;32.45;31.47
6389;BME280;3227;42.654;23.360;2022-07-23T08:52:43;94746.66;;;32.47;31.25
6389;BME280;3227;42.654;23.360;2022-07-23T08:55:09;94744.94;;;32.58;31.51
6389;BME280;3227;42.654;23.360;2022-07-23T08:57:36;94739.38;;;32.61;32.02
6389;BME280;3227;42.654;23.360;2022-07-23T09:00:05;94735.03;;;32.60;30.94
6389;BME280;3227;42.654;23.360;2022-07-23T09:02:38;94740.50;;;32.47;30.92
6389;BME280;3227;42.654;23.360;2022-07-23T09:05:06;94735.63;;;32.31;31.29
6389;BME280;3227;42.654;23.360;2022-07-23T09:07:34;94729.97;;;32.36;31.65
6389;BME280;3227;42.654;23.360;2022-07-23T09:10:06;94734.84;;;32.20;31.48
6389;BME280;3227;42.654;23.360;2022-07-23T09:12:33;94724.56;;;32.15;32.24
6389;BME280;3227;42.654;23.360;2022-07-23T09:15:07;94733.19;;;32.39;31.68
6389;BME280;3227;42.654;23.360;2022-07-23T09:17:39;94731.47;;;32.49;31.09
6389;BME280;3227;42.654;23.360;2022-07-23T09:20:12;94726.59;;;32.55;30.64
6389;BME280;3227;42.654;23.360;2022-07-23T09:22:44;94723.91;;;32.66;31.16
6389;BME280;3227;42.654;23.360;2022-07-23T09:25:13;94727.25;;;32.79;30.43
6389;BME280;3227;42.654;23.360;2022-07-23T09:27:52;94726.22;;;32.91;30.76
6389;BME280;3227;42.654;23.360;2022-07-23T09:30:20;94728.72;;;33.13;30.48
6389;BME280;3227;42.654;23.360;2022-07-23T09:33:06;94722.13;;;33.29;30.00
6389;BME280;3227;42.654;23.360;2022-07-23T09:35:47;94720.81;;;33.44;30.85
6389;BME280;3227;42.654;23.360;2022-07-23T09:38:16;94724.91;;;33.57;29.77
6389;BME280;3227;42.654;23.360;2022-07-23T09:40:44;94705.06;;;33.52;28.65
6389;BME280;3227;42.654;23.360;2022-07-23T09:43:11;94713.63;;;33.65;28.76
6389;BME280;3227;42.654;23.360;2022-07-23T09:45:38;94653.69;;;33.42;28.81
6389;BME280;3227;42.654;23.360;2022-07-23T09:48:12;94698.16;;;33.80;28.11
6389;BME280;3227;42.654;23.360;2022-07-23T09:50:40;94698.28;;;33.78;28.17
6389;BME280;3227;42.654;23.360;2022-07-23T09:53:07;94692.97;;;33.78;28.68
6389;BME280;3227;42.654;23.360;2022-07-23T09:55:36;94701.44;;;33.62;27.57
6389;BME280;3227;42.654;23.360;2022-07-23T09:58:05;94704.88;;;33.53;27.95
6389;BME280;3227;42.654;23.360;2022-07-23T10:00:34;94701.56;;;33.51;27.82
6389;BME280;3227;42.654;23.360;2022-07-23T10:03:05;94694.59;;;33.60;27.30
6389;BME280;3227;42.654;23.360;2022-07-23T10:05:32;94689.28;;;33.60;27.19
6389;BME280;3227;42.654;23.360;2022-07-23T10:08:01;94691.25;;;33.68;27.15
6389;BME280;3227;42.654;23.360;2022-07-23T10:10:28;94686.13;;;33.76;27.14
6389;BME280;3227;42.654;23.360;2022-07-23T10:12:59;94685.00;;;33.78;26.74
6389;BME280;3227;42.654;23.360;2022-07-23T10:15:40;94683.22;;;33.88;26.83
6389;BME280;3227;42.654;23.360;2022-07-23T10:18:10;94681.41;;;33.98;26.44
6389;BME280;3227;42.654;23.360;2022-07-23T10:20:37;94673.31;;;34.00;25.70
6389;BME280;3227;42.654;23.360;2022-07-23T10:23:10;94675.81;;;34.02;25.52
6389;BME280;3227;42.654;23.360;2022-07-23T10:25:44;94676.97;;;34.09;26.00
6389;BME280;3227;42.654;23.360;2022-07-23T10:28:25;94668.56;;;34.13;25.24
6389;BME280;3227;42.654;23.360;2022-07-23T10:31:02;94668.97;;;34.09;24.23
6389;BME280;3227;42.654;23.360;2022-07-23T10:33:41;94671.91;;;34.06;22.78
6389;BME280;3227;42.654;23.360;2022-07-23T10:36:19;94642.34;;;33.89;23.76
6389;BME280;3227;42.654;23.360;2022-07-23T10:38:52;94628.63;;;33.94;23.99
6389;BME280;3227;42.654;23.360;2022-07-23T10:41:31;94668.16;;;34.18;23.89
6389;BME280;3227;42.654;23.360;2022-07-23T10:44:10;94661.44;;;34.23;24.12
6389;BME280;3227;42.654;23.360;2022-07-23T10:46:55;94656.41;;;34.30;23.92
6389;BME280;3227;42.654;23.360;2022-07-23T10:49:32;94655.16;;;34.34;23.65
6389;BME280;3227;42.654;23.360;2022-07-23T10:52:20;94645.34;;;34.34;22.84
6389;BME280;3227;42.654;23.360;2022-07-23T10:54:48;94622.25;;;34.25;22.65
6389;BME280;3227;42.654;23.360;2022-07-23T10:57:16;94638.91;;;34.37;21.81
6389;BME280;3227;42.654;23.360;2022-07-23T11:00:16;94635.13;;;34.49;20.86
6389;BME280;3227;42.654;23.360;2022-07-23T11:02:47;94635.38;;;34.56;20.88
6389;BME280;3227;42.654;23.360;2022-07-23T11:05:16;94630.34;;;34.53;20.96
6389;BME280;3227;42.654;23.360;2022-07-23T11:08:10;94626.81;;;34.62;21.32
6389;BME280;3227;42.654;23.360;2022-07-23T11:10:38;94620.91;;;34.68;21.06
6389;BME280;3227;42.654;23.360;2022-07-23T11:13:31;94626.94;;;34.70;19.70
6389;BME280;3227;42.654;23.360;2022-07-23T11:19:06;94614.75;;;34.67;17.58
6389;BME280;3227;42.654;23.360;2022-07-23T11:21:44;94616.91;;;34.73;18.19
6389;BME280;3227;42.654;23.360;2022-07-23T11:24:12;94609.84;;;34.72;18.59
6389;BME280;3227;42.654;23.360;2022-07-23T11:27:03;94607.47;;;34.69;19.16
6389;BME280;3227;42.654;23.360;2022-07-23T11:29:43;94608.19;;;34.71;19.44
6389;BME280;3227;42.654;23.360;2022-07-23T11:32:33;94596.13;;;34.77;19.25
6389;BME280;3227;42.654;23.360;2022-07-23T11:35:18;94598.19;;;34.93;19.55
6389;BME280;3227;42.654;23.360;2022-07-23T11:37:46;94574.56;;;34.80;18.75
6389;BME280;3227;42.654;23.360;2022-07-23T11:40:15;94600.56;;;34.96;18.73
6389;BME280;3227;42.654;23.360;2022-07-23T11:42:52;94546.38;;;34.68;18.50
6389;BME280;3227;42.654;23.360;2022-07-23T11:45:19;94596.34;;;35.03;18.44
6389;BME280;3227;42.654;23.360;2022-07-23T11:47:47;94588.06;;;35.06;18.16
6389;BME280;3227;42.654;23.360;2022-07-23T11:50:14;94587.19;;;35.15;18.41
6389;BME280;3227;42.654;23.360;2022-07-23T11:52:40;94585.59;;;35.22;18.28
6389;BME280;3227;42.654;23.360;2022-07-23T11:55:09;94586.44;;;35.32;17.62
6389;BME280;3227;42.654;23.360;2022-07-23T11:57:38;94583.16;;;35.38;17.06
6389;BME280;3227;42.654;23.360;2022-07-23T12:00:08;94589.34;;;35.39;16.40
6389;BME280;3227;42.654;23.360;2022-07-23T12:02:36;94580.59;;;35.46;16.59
6389;BME280;3227;42.654;23.360;2022-07-23T12:05:06;94585.72;;;35.58;16.14
6389;BME280;3227;42.654;23.360;2022-07-23T12:07:36;94583.78;;;35.50;15.97
6389;BME280;3227;42.654;23.360;2022-07-23T12:10:10;94577.97;;;35.37;16.22
6389;BME280;3227;42.654;23.360;2022-07-23T12:12:39;94578.81;;;35.37;16.84
6389;BME280;3227;42.654;23.360;2022-07-23T12:15:07;94573.72;;;35.44;16.40
6389;BME280;3227;42.654;23.360;2022-07-23T12:17:35;94570.31;;;35.52;16.75
6389;BME280;3227;42.654;23.360;2022-07-23T12:20:09;94572.00;;;35.53;16.03
6389;BME280;3227;42.654;23.360;2022-07-23T12:22:37;94561.81;;;35.48;16.07
6389;BME280;3227;42.654;23.360;2022-07-23T12:25:07;94559.66;;;35.52;16.27
6389;BME280;3227;42.654;23.360;2022-07-23T12:27:35;94554.31;;;35.52;16.15
6389;BME280;3227;42.654;23.360;2022-07-23T12:30:22;94563.00;;;35.54;15.77
6389;BME280;3227;42.654;23.360;2022-07-23T12:32:52;94558.75;;;35.61;15.65
6389;BME280;3227;42.654;23.360;2022-07-23T12:35:21;94551.75;;;35.60;15.70
6389;BME280;3227;42.654;23.360;2022-07-23T12:37:51;94551.38;;;35.55;15.28
6389;BME280;3227;42.654;23.360;2022-07-23T12:40:28;94524.09;;;35.43;15.25
6389;BME280;3227;42.654;23.360;2022-07-23T12:42:57;94548.00;;;35.53;15.35
6389;BME280;3227;42.654;23.360;2022-07-23T12:45:24;94544.94;;;35.30;15.56
6389;BME280;3227;42.654;23.360;2022-07-23T12:48:00;94544.78;;;35.31;15.93
6389;BME280;3227;42.654;23.360;2022-07-23T12:50:38;94536.47;;;35.34;16.01
6389;BME280;3227;42.654;23.360;2022-07-23T12:53:08;94542.22;;;35.39;15.68
6389;BME280;3227;42.654;23.360;2022-07-23T12:55:35;94531.94;;;35.44;16.11
6389;BME280;3227;42.654;23.360;2022-07-23T12:58:04;94544.91;;;35.57;15.47
6389;BME280;3227;42.654;23.360;2022-07-23T13:00:31;94543.09;;;35.58;15.96
6389;BME280;3227;42.654;23.360;2022-07-23T13:02:58;94539.81;;;35.64;15.69
6389;BME280;3227;42.654;23.360;2022-07-23T13:05:36;94533.03;;;35.69;15.27
6389;BME280;3227;42.654;23.360;2022-07-23T13:08:03;94536.50;;;35.79;14.70
6389;BME280;3227;42.654;23.360;2022-07-23T13:10:30;94533.19;;;35.85;14.69
6389;BME280;3227;42.654;23.360;2022-07-23T13:12:57;94524.59;;;35.92;14.80
6389;BME280;3227;42.654;23.360;2022-07-23T13:15:24;94534.81;;;35.96;14.54
6389;BME280;3227;42.654;23.360;2022-07-23T13:17:50;94528.16;;;36.00;14.13
6389;BME280;3227;42.654;23.360;2022-07-23T13:20:17;94513.41;;;35.88;14.30
6389;BME280;3227;42.654;23.360;2022-07-23T13:22:46;94528.16;;;36.00;14.33